sensor_id;sensor_type;location;lat;lon;timestamp;P1;durP1;ratioP1;P2;durP2;ratioP2
7338;SDS011;33747;49.524;8.390;2022-09-03T00:02:27;2.33;;;1.27;;
7338;SDS011;33747;49.524;8.390;2022-09-03T00:05:02;2.67;;;1.45;;
7338;SDS011;33747;49.524;8.390;2022-09-03T00:07:46;5.05;;;1.65;;
7338;SDS011;33747;49.524;8.390;2022-09-03T00:10:22;2.75;;;1.60;;
7338;SDS011;33747;49.524;8.390;2022-09-03T00:12:52;2.17;;;1.40;;
7338;SDS011;33747;49.524;8.390;2022-09-03T00:15:20;3.72;;;1.35;;
7338;SDS011;33747;49.524;8.390;2022-09-03T00:17:48;3.85;;;1.80;;
7338;SDS011;33747;49.524;8.390;2022-09-03T00:22:54;5.35;;;1.63;;
7338;SDS011;33747;49.524;8.390;2022-09-03T00:25:27;5.85;;;1.73;;
7338;SDS011;33747;49.524;8.390;2022-09-03T00:27:57;2.60;;;1.08;;
7338;SDS011;33747;49.524;8.390;2022-09-03T00:30:26;6.63;;;1.30;;
7338;SDS011;33747;49.524;8.390;2022-09-03T00:32:58;7.13;;;1.58;;
7338;SDS011;33747;49.524;8.390;2022-09-03T00:35:32;6.10;;;1.40;;
7338;SDS011;33747;49.524;8.390;2022-09-03T00:37:59;2.30;;;1.60;;
7338;SDS011;33747;49.524;8.390;2022-09-03T00:46:46;3.90;;;1.42;;
7338;SDS011;33747;49.524;8.390;2022-09-03T00:49:24;3.63;;;1.52;;
7338;SDS011;33747;49.524;8.390;2022-09-03T00:52:15;6.70;;;1.58;;
7338;SDS011;33747;49.524;8.390;2022-09-03T00:54:53;2.40;;;1.67;;
7338;SDS011;33747;49.524;8.390;2022-09-03T00:57:37;3.95;;;1.60;;
7338;SDS011;33747;49.524;8.390;2022-09-03T01:00:16;5.03;;;2.00;;
7338;SDS011;33747;49.524;8.390;2022-09-03T01:05:54;4.65;;;1.85;;
7338;SDS011;33747;49.524;8.390;2022-09-03T01:11:04;4.47;;;1.75;;
7338;SDS011;33747;49.524;8.390;2022-09-03T01:14:00;3.53;;;1.52;;
7338;SDS011;33747;49.524;8.390;2022-09-03T01:16:56;6.93;;;1.55;;
7338;SDS011;33747;49.524;8.390;2022-09-03T01:19:46;3.00;;;1.50;;
7338;SDS011;33747;49.524;8.390;2022-09-03T01:22:52;4.78;;;1.80;;
7338;SDS011;33747;49.524;8.390;2022-09-03T01:30:50;4.30;;;1.20;;
7338;SDS011;33747;49.524;8.390;2022-09-03T01:33:30;1.52;;;1.30;;
7338;SDS011;33747;49.524;8.390;2022-09-03T01:36:46;3.95;;;1.40;;
7338;SDS011;33747;49.524;8.390;2022-09-03T01:38:59;3.88;;;1.33;;
7338;SDS011;33747;49.524;8.390;2022-09-03T01:41:34;2.35;;;1.63;;
7338;SDS011;33747;49.524;8.390;2022-09-03T01:55:59;1.20;;;1.10;;
7338;SDS011;33747;49.524;8.390;2022-09-03T01:58:41;6.75;;;1.38;;
7338;SDS011;33747;49.524;8.390;2022-09-03T02:01:12;5.63;;;1.33;;
7338;SDS011;33747;49.524;8.390;2022-09-03T02:03:41;5.70;;;1.30;;
7338;SDS011;33747;49.524;8.390;2022-09-03T02:06:09;2.00;;;1.20;;
7338;SDS011;33747;49.524;8.390;2022-09-03T02:08:34;12.43;;;1.50;;
7338;SDS011;33747;49.524;8.390;2022-09-03T02:11:00;3.05;;;1.30;;
7338;SDS011;33747;49.524;8.390;2022-09-03T02:13:31;2.15;;;1.27;;
7338;SDS011;33747;49.524;8.390;2022-09-03T02:16:16;3.30;;;1.40;;
7338;SDS011;33747;49.524;8.390;2022-09-03T02:18:50;4.55;;;1.67;;
7338;SDS011;33747;49.524;8.390;2022-09-03T02:21:19;2.35;;;1.33;;
7338;SDS011;33747;49.524;8.390;2022-09-03T02:23:46;1.95;;;1.13;;
7338;SDS011;33747;49.524;8.390;2022-09-03T02:26:13;1.88;;;1.30;;
7338;SDS011;33747;49.524;8.390;2022-09-03T02:28:42;4.38;;;1.63;;
7338;SDS011;33747;49.524;8.390;2022-09-03T02:31:07;4.78;;;1.40;;
7338;SDS011;33747;49.524;8.390;2022-09-03T02:33:37;5.85;;;1.33;;
7338;SDS011;33747;49.524;8.390;2022-09-03T02:36:06;5.15;;;1.50;;
7338;SDS011;33747;49.524;8.390;2022-09-03T02:38:33;3.42;;;1.55;;
7338;SDS011;33747;49.524;8.390;2022-09-03T02:40:58;2.35;;;1.27;;
7338;SDS011;33747;49.524;8.390;2022-09-03T02:43:29;3.00;;;1.38;;
7338;SDS011;33747;49.524;8.390;2022-09-03T02:46:00;10.00;;;1.40;;
7338;SDS011;33747;49.524;8.390;2022-09-03T02:48:27;4.22;;;1.33;;
7338;SDS011;33747;49.524;8.390;2022-09-03T02:50:52;4.35;;;1.38;;
7338;SDS011;33747;49.524;8.390;2022-09-03T02:53:18;4.43;;;1.55;;
7338;SDS011;33747;49.524;8.390;2022-09-03T02:55:43;4.40;;;1.88;;
7338;SDS011;33747;49.524;8.390;2022-09-03T02:58:08;4.45;;;1.33;;
7338;SDS011;33747;49.524;8.390;2022-09-03T03:00:34;6.07;;;1.48;;
7338;SDS011;33747;49.524;8.390;2022-09-03T03:03:02;5.93;;;1.20;;
7338;SDS011;33747;49.524;8.390;2022-09-03T03:06:02;3.88;;;1.42;;
7338;SDS011;33747;49.524;8.390;2022-09-03T03:08:21;1.67;;;1.30;;
7338;SDS011;33747;49.524;8.390;2022-09-03T03:10:50;4.15;;;1.63;;
7338;SDS011;33747;49.524;8.390;2022-09-03T03:13:16;3.85;;;1.70;;
7338;SDS011;33747;49.524;8.390;2022-09-03T03:15:43;3.10;;;1.50;;
7338;SDS011;33747;49.524;8.390;2022-09-03T03:18:10;4.82;;;2.00;;
7338;SDS011;33747;49.524;8.390;2022-09-03T03:20:38;12.25;;;1.90;;
7338;SDS011;33747;49.524;8.390;2022-09-03T03:23:04;2.28;;;1.92;;
7338;SDS011;33747;49.524;8.390;2022-09-03T03:25:33;1.52;;;1.42;;
7338;SDS011;33747;49.524;8.390;2022-09-03T03:27:59;8.07;;;2.30;;
7338;SDS011;33747;49.524;8.390;2022-09-03T03:30:25;2.80;;;1.80;;
7338;SDS011;33747;49.524;8.390;2022-09-03T03:32:52;2.83;;;1.40;;
7338;SDS011;33747;49.524;8.390;2022-09-03T03:35:17;2.95;;;1.63;;
7338;SDS011;33747;49.524;8.390;2022-09-03T03:37:43;2.72;;;1.30;;
7338;SDS011;33747;49.524;8.390;2022-09-03T03:40:08;2.35;;;1.50;;
7338;SDS011;33747;49.524;8.390;2022-09-03T03:42:34;4.43;;;1.52;;
7338;SDS011;33747;49.524;8.390;2022-09-03T03:44:59;2.63;;;1.50;;
7338;SDS011;33747;49.524;8.390;2022-09-03T03:47:26;3.00;;;1.77;;
7338;SDS011;33747;49.524;8.390;2022-09-03T03:49:53;5.22;;;2.47;;
7338;SDS011;33747;49.524;8.390;2022-09-03T03:52:18;6.25;;;1.33;;
7338;SDS011;33747;49.524;8.390;2022-09-03T03:54:43;3.25;;;1.50;;
7338;SDS011;33747;49.524;8.390;2022-09-03T03:57:09;3.20;;;1.50;;
7338;SDS011;33747;49.524;8.390;2022-09-03T03:59:34;1.88;;;1.30;;
7338;SDS011;33747;49.524;8.390;2022-09-03T04:01:59;8.38;;;1.70;;
7338;SDS011;33747;49.524;8.390;2022-09-03T04:04:25;3.00;;;1.75;;
7338;SDS011;33747;49.524;8.390;2022-09-03T04:06:50;3.45;;;1.52;;
7338;SDS011;33747;49.524;8.390;2022-09-03T04:09:15;4.30;;;1.17;;
7338;SDS011;33747;49.524;8.390;2022-09-03T04:11:41;2.25;;;1.80;;
7338;SDS011;33747;49.524;8.390;2022-09-03T04:14:06;3.00;;;1.15;;
7338;SDS011;33747;49.524;8.390;2022-09-03T04:16:32;6.05;;;1.73;;
7338;SDS011;33747;49.524;8.390;2022-09-03T04:18:57;3.22;;;1.48;;
7338;SDS011;33747;49.524;8.390;2022-09-03T04:21:27;1.25;;;1.15;;
7338;SDS011;33747;49.524;8.390;2022-09-03T04:23:53;5.00;;;1.50;;
7338;SDS011;33747;49.524;8.390;2022-09-03T04:26:23;2.83;;;1.33;;
7338;SDS011;33747;49.524;8.390;2022-09-03T04:28:49;1.70;;;1.48;;
7338;SDS011;33747;49.524;8.390;2022-09-03T04:31:16;2.15;;;1.67;;
7338;SDS011;33747;49.524;8.390;2022-09-03T04:33:42;4.47;;;1.40;;
7338;SDS011;33747;49.524;8.390;2022-09-03T04:36:12;2.22;;;1.85;;
7338;SDS011;33747;49.524;8.390;2022-09-03T04:38:39;1.60;;;1.50;;
7338;SDS011;33747;49.524;8.390;2022-09-03T04:41:06;8.68;;;2.53;;
7338;SDS011;33747;49.524;8.390;2022-09-03T04:43:33;4.57;;;1.58;;
7338;SDS011;33747;49.524;8.390;2022-09-03T04:45:59;3.38;;;1.50;;
7338;SDS011;33747;49.524;8.390;2022-09-03T04:48:25;1.65;;;1.42;;
7338;SDS011;33747;49.524;8.390;2022-09-03T04:50:52;6.38;;;1.40;;
7338;SDS011;33747;49.524;8.390;2022-09-03T04:53:18;1.98;;;1.50;;
7338;SDS011;33747;49.524;8.390;2022-09-03T04:55:44;7.40;;;1.67;;
7338;SDS011;33747;49.524;8.390;2022-09-03T04:58:09;5.03;;;1.23;;
7338;SDS011;33747;49.524;8.390;2022-09-03T05:00:35;4.85;;;2.08;;
7338;SDS011;33747;49.524;8.390;2022-09-03T05:03:01;3.50;;;1.60;;
7338;SDS011;33747;49.524;8.390;2022-09-03T05:05:29;3.47;;;1.60;;
7338;SDS011;33747;49.524;8.390;2022-09-03T05:07:57;6.35;;;1.85;;
7338;SDS011;33747;49.524;8.390;2022-09-03T05:10:25;5.60;;;1.90;;
7338;SDS011;33747;49.524;8.390;2022-09-03T05:12:58;6.10;;;1.42;;
7338;SDS011;33747;49.524;8.390;2022-09-03T05:15:24;5.05;;;1.70;;
7338;SDS011;33747;49.524;8.390;2022-09-03T05:17:54;3.83;;;1.90;;
7338;SDS011;33747;49.524;8.390;2022-09-03T05:20:20;5.28;;;2.03;;
7338;SDS011;33747;49.524;8.390;2022-09-03T05:22:45;6.20;;;2.15;;
7338;SDS011;33747;49.524;8.390;2022-09-03T05:25:10;7.20;;;1.50;;
7338;SDS011;33747;49.524;8.390;2022-09-03T05:27:36;7.35;;;1.83;;
7338;SDS011;33747;49.524;8.390;2022-09-03T05:30:01;11.20;;;1.60;;
7338;SDS011;33747;49.524;8.390;2022-09-03T05:32:28;8.88;;;2.15;;
7338;SDS011;33747;49.524;8.390;2022-09-03T05:34:54;5.90;;;2.60;;
7338;SDS011;33747;49.524;8.390;2022-09-03T05:37:20;6.28;;;2.50;;
7338;SDS011;33747;49.524;8.390;2022-09-03T05:39:47;5.32;;;2.83;;
7338;SDS011;33747;49.524;8.390;2022-09-03T05:42:12;3.85;;;1.90;;
7338;SDS011;33747;49.524;8.390;2022-09-03T05:44:39;2.67;;;1.63;;
7338;SDS011;33747;49.524;8.390;2022-09-03T05:47:04;9.13;;;1.70;;
7338;SDS011;33747;49.524;8.390;2022-09-03T05:49:29;3.33;;;1.55;;
7338;SDS011;33747;49.524;8.390;2022-09-03T05:51:55;7.88;;;1.90;;
7338;SDS011;33747;49.524;8.390;2022-09-03T05:54:21;6.43;;;1.90;;
7338;SDS011;33747;49.524;8.390;2022-09-03T05:56:46;3.42;;;1.30;;
7338;SDS011;33747;49.524;8.390;2022-09-03T05:59:12;6.90;;;1.55;;
7338;SDS011;33747;49.524;8.390;2022-09-03T06:01:38;2.40;;;1.67;;
7338;SDS011;33747;49.524;8.390;2022-09-03T06:04:11;8.20;;;1.70;;
7338;SDS011;33747;49.524;8.390;2022-09-03T06:06:38;2.55;;;1.55;;
7338;SDS011;33747;49.524;8.390;2022-09-03T06:09:09;6.80;;;1.50;;
7338;SDS011;33747;49.524;8.390;2022-09-03T06:11:39;5.22;;;1.10;;
7338;SDS011;33747;49.524;8.390;2022-09-03T06:14:07;3.00;;;1.55;;
7338;SDS011;33747;49.524;8.390;2022-09-03T06:16:34;2.97;;;1.52;;
7338;SDS011;33747;49.524;8.390;2022-09-03T06:19:02;2.75;;;1.60;;
7338;SDS011;33747;49.524;8.390;2022-09-03T06:21:27;2.45;;;1.35;;
7338;SDS011;33747;49.524;8.390;2022-09-03T06:23:54;3.63;;;1.13;;
7338;SDS011;33747;49.524;8.390;2022-09-03T06:26:21;3.03;;;1.20;;
7338;SDS011;33747;49.524;8.390;2022-09-03T06:28:47;6.57;;;1.38;;
7338;SDS011;33747;49.524;8.390;2022-09-03T06:31:13;7.40;;;1.50;;
7338;SDS011;33747;49.524;8.390;2022-09-03T06:33:40;6.82;;;1.60;;
7338;SDS011;33747;49.524;8.390;2022-09-03T06:36:07;7.32;;;2.35;;
7338;SDS011;33747;49.524;8.390;2022-09-03T06:38:37;4.25;;;2.05;;
7338;SDS011;33747;49.524;8.390;2022-09-03T06:41:04;15.85;;;2.63;;
7338;SDS011;33747;49.524;8.390;2022-09-03T06:43:35;4.13;;;1.70;;
7338;SDS011;33747;49.524;8.390;2022-09-03T06:46:03;3.67;;;1.70;;
7338;SDS011;33747;49.524;8.390;2022-09-03T06:48:31;3.88;;;1.80;;
7338;SDS011;33747;49.524;8.390;2022-09-03T06:50:58;2.20;;;1.88;;
7338;SDS011;33747;49.524;8.390;2022-09-03T06:53:26;2.92;;;1.30;;
7338;SDS011;33747;49.524;8.390;2022-09-03T06:55:56;1.92;;;1.50;;
7338;SDS011;33747;49.524;8.390;2022-09-03T06:58:23;3.97;;;1.85;;
7338;SDS011;33747;49.524;8.390;2022-09-03T07:00:49;5.38;;;1.85;;
7338;SDS011;33747;49.524;8.390;2022-09-03T07:03:16;4.32;;;1.90;;
7338;SDS011;33747;49.524;8.390;2022-09-03T07:05:42;3.25;;;2.05;;
7338;SDS011;33747;49.524;8.390;2022-09-03T07:08:08;8.20;;;1.80;;
7338;SDS011;33747;49.524;8.390;2022-09-03T07:10:35;2.47;;;1.60;;
7338;SDS011;33747;49.524;8.390;2022-09-03T07:13:01;4.53;;;1.80;;
7338;SDS011;33747;49.524;8.390;2022-09-03T07:15:26;3.80;;;1.80;;
7338;SDS011;33747;49.524;8.390;2022-09-03T07:17:52;6.40;;;2.47;;
7338;SDS011;33747;49.524;8.390;2022-09-03T07:20:17;9.55;;;2.03;;
7338;SDS011;33747;49.524;8.390;2022-09-03T07:22:43;6.82;;;2.78;;
7338;SDS011;33747;49.524;8.390;2022-09-03T07:25:09;7.13;;;2.20;;
7338;SDS011;33747;49.524;8.390;2022-09-03T07:27:35;3.65;;;1.98;;
7338;SDS011;33747;49.524;8.390;2022-09-03T07:30:00;7.38;;;2.15;;
7338;SDS011;33747;49.524;8.390;2022-09-03T07:32:27;3.28;;;1.83;;
7338;SDS011;33747;49.524;8.390;2022-09-03T07:34:52;3.45;;;1.85;;
7338;SDS011;33747;49.524;8.390;2022-09-03T07:37:18;4.72;;;2.40;;
7338;SDS011;33747;49.524;8.390;2022-09-03T07:39:43;7.32;;;2.50;;
7338;SDS011;33747;49.524;8.390;2022-09-03T07:42:10;7.55;;;2.15;;
7338;SDS011;33747;49.524;8.390;2022-09-03T07:44:35;5.15;;;2.00;;
7338;SDS011;33747;49.524;8.390;2022-09-03T07:47:00;4.80;;;2.20;;
7338;SDS011;33747;49.524;8.390;2022-09-03T07:49:26;6.80;;;2.25;;
7338;SDS011;33747;49.524;8.390;2022-09-03T07:51:52;8.68;;;2.30;;
7338;SDS011;33747;49.524;8.390;2022-09-03T07:54:18;8.93;;;2.30;;
7338;SDS011;33747;49.524;8.390;2022-09-03T07:56:44;2.45;;;1.63;;
7338;SDS011;33747;49.524;8.390;2022-09-03T07:59:09;6.53;;;2.05;;
7338;SDS011;33747;49.524;8.390;2022-09-03T08:01:36;5.80;;;2.30;;
7338;SDS011;33747;49.524;8.390;2022-09-03T08:04:02;4.07;;;2.28;;
7338;SDS011;33747;49.524;8.390;2022-09-03T08:06:29;3.65;;;1.90;;
7338;SDS011;33747;49.524;8.390;2022-09-03T08:08:58;3.15;;;2.15;;
7338;SDS011;33747;49.524;8.390;2022-09-03T08:11:26;7.65;;;2.60;;
7338;SDS011;33747;49.524;8.390;2022-09-03T08:13:57;3.28;;;2.10;;
7338;SDS011;33747;49.524;8.390;2022-09-03T08:16:25;2.50;;;2.20;;
7338;SDS011;33747;49.524;8.390;2022-09-03T08:18:52;6.30;;;2.05;;
7338;SDS011;33747;49.524;8.390;2022-09-03T08:21:18;2.35;;;1.95;;
7338;SDS011;33747;49.524;8.390;2022-09-03T08:23:48;4.07;;;2.40;;
7338;SDS011;33747;49.524;8.390;2022-09-03T08:26:15;3.95;;;2.10;;
7338;SDS011;33747;49.524;8.390;2022-09-03T08:28:42;2.63;;;2.30;;
7338;SDS011;33747;49.524;8.390;2022-09-03T08:31:08;5.28;;;2.40;;
7338;SDS011;33747;49.524;8.390;2022-09-03T08:33:39;3.47;;;2.15;;
7338;SDS011;33747;49.524;8.390;2022-09-03T08:38:33;5.30;;;2.13;;
7338;SDS011;33747;49.524;8.390;2022-09-03T08:41:19;5.10;;;2.10;;
7338;SDS011;33747;49.524;8.390;2022-09-03T08:44:19;1.95;;;1.83;;
7338;SDS011;33747;49.524;8.390;2022-09-03T08:49:26;4.93;;;2.75;;
7338;SDS011;33747;49.524;8.390;2022-09-03T08:52:23;6.72;;;3.38;;
7338;SDS011;33747;49.524;8.390;2022-09-03T08:55:00;4.45;;;2.78;;
7338;SDS011;33747;49.524;8.390;2022-09-03T08:57:30;4.90;;;2.38;;
7338;SDS011;33747;49.524;8.390;2022-09-03T08:59:57;2.50;;;2.30;;
7338;SDS011;33747;49.524;8.390;2022-09-03T09:05:16;3.28;;;2.83;;
7338;SDS011;33747;49.524;8.390;2022-09-03T09:07:58;2.25;;;2.15;;
7338;SDS011;33747;49.524;8.390;2022-09-03T09:10:35;3.55;;;2.22;;
7338;SDS011;33747;49.524;8.390;2022-09-03T09:18:28;3.15;;;2.40;;
7338;SDS011;33747;49.524;8.390;2022-09-03T09:21:27;3.55;;;2.83;;
7338;SDS011;33747;49.524;8.390;2022-09-03T09:23:56;7.50;;;2.20;;
7338;SDS011;33747;49.524;8.390;2022-09-03T09:26:26;6.90;;;2.38;;
7338;SDS011;33747;49.524;8.390;2022-09-03T09:28:54;6.43;;;2.30;;
7338;SDS011;33747;49.524;8.390;2022-09-03T09:31:23;8.15;;;2.72;;
7338;SDS011;33747;49.524;8.390;2022-09-03T09:33:48;2.85;;;2.50;;
7338;SDS011;33747;49.524;8.390;2022-09-03T09:36:16;4.20;;;2.45;;
7338;SDS011;33747;49.524;8.390;2022-09-03T09:38:43;4.03;;;2.65;;
7338;SDS011;33747;49.524;8.390;2022-09-03T09:41:14;5.85;;;2.42;;
7338;SDS011;33747;49.524;8.390;2022-09-03T09:43:42;3.85;;;2.22;;
7338;SDS011;33747;49.524;8.390;2022-09-03T09:46:12;6.53;;;3.05;;
7338;SDS011;33747;49.524;8.390;2022-09-03T09:48:45;4.28;;;3.05;;
7338;SDS011;33747;49.524;8.390;2022-09-03T09:51:21;7.38;;;3.10;;
7338;SDS011;33747;49.524;8.390;2022-09-03T09:53:58;5.00;;;3.05;;
7338;SDS011;33747;49.524;8.390;2022-09-03T09:56:28;4.70;;;2.80;;
7338;SDS011;33747;49.524;8.390;2022-09-03T09:59:04;8.82;;;3.08;;
7338;SDS011;33747;49.524;8.390;2022-09-03T10:01:30;5.90;;;3.00;;
7338;SDS011;33747;49.524;8.390;2022-09-03T10:03:59;8.38;;;2.78;;
7338;SDS011;33747;49.524;8.390;2022-09-03T10:06:35;4.72;;;3.15;;
7338;SDS011;33747;49.524;8.390;2022-09-03T10:09:21;4.85;;;2.85;;
7338;SDS011;33747;49.524;8.390;2022-09-03T10:11:49;4.00;;;2.78;;
7338;SDS011;33747;49.524;8.390;2022-09-03T10:14:22;4.45;;;2.80;;
7338;SDS011;33747;49.524;8.390;2022-09-03T10:16:51;6.95;;;2.72;;
7338;SDS011;33747;49.524;8.390;2022-09-03T10:19:22;9.63;;;2.50;;
7338;SDS011;33747;49.524;8.390;2022-09-03T10:27:11;2.97;;;2.25;;
7338;SDS011;33747;49.524;8.390;2022-09-03T10:29:39;5.75;;;3.40;;
7338;SDS011;33747;49.524;8.390;2022-09-03T10:35:07;8.27;;;3.15;;
7338;SDS011;33747;49.524;8.390;2022-09-03T10:37:54;9.90;;;3.40;;
7338;SDS011;33747;49.524;8.390;2022-09-03T10:45:51;4.88;;;2.90;;
7338;SDS011;33747;49.524;8.390;2022-09-03T10:59:31;4.95;;;3.33;;
7338;SDS011;33747;49.524;8.390;2022-09-03T11:02:04;6.05;;;2.92;;
7338;SDS011;33747;49.524;8.390;2022-09-03T11:05:01;4.57;;;2.63;;
7338;SDS011;33747;49.524;8.390;2022-09-03T11:07:47;6.28;;;2.60;;
7338;SDS011;33747;49.524;8.390;2022-09-03T11:15:26;5.53;;;2.67;;
7338;SDS011;33747;49.524;8.390;2022-09-03T11:17:59;3.25;;;2.95;;
7338;SDS011;33747;49.524;8.390;2022-09-03T11:20:28;4.88;;;2.63;;
7338;SDS011;33747;49.524;8.390;2022-09-03T11:22:56;4.63;;;3.22;;
7338;SDS011;33747;49.524;8.390;2022-09-03T11:25:24;3.03;;;2.70;;
7338;SDS011;33747;49.524;8.390;2022-09-03T11:33:43;5.18;;;2.50;;
7338;SDS011;33747;49.524;8.390;2022-09-03T11:36:11;2.70;;;2.08;;
7338;SDS011;33747;49.524;8.390;2022-09-03T11:38:37;4.05;;;2.25;;
7338;SDS011;33747;49.524;8.390;2022-09-03T11:44:09;3.42;;;2.13;;
7338;SDS011;33747;49.524;8.390;2022-09-03T11:46:38;3.45;;;2.25;;
7338;SDS011;33747;49.524;8.390;2022-09-03T11:49:11;2.38;;;1.92;;
7338;SDS011;33747;49.524;8.390;2022-09-03T11:51:38;6.47;;;2.30;;
7338;SDS011;33747;49.524;8.390;2022-09-03T11:56:37;4.07;;;2.40;;
7338;SDS011;33747;49.524;8.390;2022-09-03T11:59:14;7.90;;;2.25;;
7338;SDS011;33747;49.524;8.390;2022-09-03T12:01:43;1.23;;;1.10;;
7338;SDS011;33747;49.524;8.390;2022-09-03T12:04:17;1.00;;;1.00;;
7338;SDS011;33747;49.524;8.390;2022-09-03T12:09:46;1.40;;;1.30;;
7338;SDS011;33747;49.524;8.390;2022-09-03T12:15:34;2.90;;;0.85;;
7338;SDS011;33747;49.524;8.390;2022-09-03T12:18:17;1.13;;;1.02;;
7338;SDS011;33747;49.524;8.390;2022-09-03T12:20:47;1.10;;;1.00;;
7338;SDS011;33747;49.524;8.390;2022-09-03T12:23:34;1.25;;;0.93;;
7338;SDS011;33747;49.524;8.390;2022-09-03T12:26:16;1.02;;;0.85;;
7338;SDS011;33747;49.524;8.390;2022-09-03T12:28:44;1.00;;;0.90;;
7338;SDS011;33747;49.524;8.390;2022-09-03T12:31:16;4.25;;;1.08;;
7338;SDS011;33747;49.524;8.390;2022-09-03T12:36:34;1.30;;;1.20;;
7338;SDS011;33747;49.524;8.390;2022-09-03T12:39:08;2.17;;;0.80;;
7338;SDS011;33747;49.524;8.390;2022-09-03T12:41:34;0.75;;;0.70;;
7338;SDS011;33747;49.524;8.390;2022-09-03T12:44:00;0.68;;;0.60;;
7338;SDS011;33747;49.524;8.390;2022-09-03T12:46:27;0.70;;;0.70;;
7338;SDS011;33747;49.524;8.390;2022-09-03T12:48:54;0.90;;;0.77;;
7338;SDS011;33747;49.524;8.390;2022-09-03T12:51:21;1.00;;;0.75;;
7338;SDS011;33747;49.524;8.390;2022-09-03T12:53:47;0.50;;;0.50;;
7338;SDS011;33747;49.524;8.390;2022-09-03T12:56:13;1.38;;;1.00;;
7338;SDS011;33747;49.524;8.390;2022-09-03T13:01:15;1.27;;;1.13;;
7338;SDS011;33747;49.524;8.390;2022-09-03T13:06:19;1.98;;;1.10;;
7338;SDS011;33747;49.524;8.390;2022-09-03T13:11:15;1.27;;;1.00;;
7338;SDS011;33747;49.524;8.390;2022-09-03T13:19:14;1.02;;;1.00;;
7338;SDS011;33747;49.524;8.390;2022-09-03T13:27:45;1.40;;;1.30;;
7338;SDS011;33747;49.524;8.390;2022-09-03T13:30:45;1.17;;;0.90;;
7338;SDS011;33747;49.524;8.390;2022-09-03T13:33:19;1.00;;;1.00;;
7338;SDS011;33747;49.524;8.390;2022-09-03T13:36:12;0.82;;;0.82;;
7338;SDS011;33747;49.524;8.390;2022-09-03T13:38:42;1.90;;;0.93;;
7338;SDS011;33747;49.524;8.390;2022-09-03T13:41:28;2.70;;;1.40;;
7338;SDS011;33747;49.524;8.390;2022-09-03T13:46:48;1.50;;;1.40;;
7338;SDS011;33747;49.524;8.390;2022-09-03T13:49:20;3.63;;;1.30;;
7338;SDS011;33747;49.524;8.390;2022-09-03T13:52:24;1.80;;;1.70;;
7338;SDS011;33747;49.524;8.390;2022-09-03T13:55:03;1.70;;;1.60;;
7338;SDS011;33747;49.524;8.390;2022-09-03T13:57:36;4.55;;;1.40;;
7338;SDS011;33747;49.524;8.390;2022-09-03T14:00:05;2.80;;;1.60;;
7338;SDS011;33747;49.524;8.390;2022-09-03T14:02:56;2.28;;;1.48;;
7338;SDS011;33747;49.524;8.390;2022-09-03T14:05:34;2.75;;;1.80;;
7338;SDS011;33747;49.524;8.390;2022-09-03T14:13:47;1.80;;;1.67;;
7338;SDS011;33747;49.524;8.390;2022-09-03T14:16:41;4.53;;;2.00;;
7338;SDS011;33747;49.524;8.390;2022-09-03T14:19:15;1.88;;;1.60;;
7338;SDS011;33747;49.524;8.390;2022-09-03T14:24:57;2.47;;;1.73;;
7338;SDS011;33747;49.524;8.390;2022-09-03T14:27:29;2.30;;;2.10;;
7338;SDS011;33747;49.524;8.390;2022-09-03T14:30:00;2.25;;;2.05;;
7338;SDS011;33747;49.524;8.390;2022-09-03T14:40:41;2.75;;;1.90;;
7338;SDS011;33747;49.524;8.390;2022-09-03T14:54:55;2.08;;;1.70;;
7338;SDS011;33747;49.524;8.390;2022-09-03T14:57:49;1.77;;;1.60;;
7338;SDS011;33747;49.524;8.390;2022-09-03T15:00:18;2.63;;;1.70;;
7338;SDS011;33747;49.524;8.390;2022-09-03T15:02:47;5.28;;;1.63;;
7338;SDS011;33747;49.524;8.390;2022-09-03T15:11:02;1.90;;;1.80;;
7338;SDS011;33747;49.524;8.390;2022-09-03T15:16:34;1.70;;;1.60;;
7338;SDS011;33747;49.524;8.390;2022-09-03T15:22:25;2.65;;;1.30;;
7338;SDS011;33747;49.524;8.390;2022-09-03T15:25:21;6.65;;;1.27;;
7338;SDS011;33747;49.524;8.390;2022-09-03T15:30:50;5.07;;;1.40;;
7338;SDS011;33747;49.524;8.390;2022-09-03T15:33:42;1.65;;;1.15;;
7338;SDS011;33747;49.524;8.390;2022-09-03T15:36:17;2.63;;;1.40;;
7338;SDS011;33747;49.524;8.390;2022-09-03T15:38:51;3.38;;;1.50;;
7338;SDS011;33747;49.524;8.390;2022-09-03T15:41:43;5.05;;;1.73;;
7338;SDS011;33747;49.524;8.390;2022-09-03T15:44:13;3.55;;;1.60;;
7338;SDS011;33747;49.524;8.390;2022-09-03T15:49:15;1.90;;;1.20;;
7338;SDS011;33747;49.524;8.390;2022-09-03T16:00:25;6.82;;;1.48;;
7338;SDS011;33747;49.524;8.390;2022-09-03T16:08:27;7.88;;;2.80;;
7338;SDS011;33747;49.524;8.390;2022-09-03T16:15:59;1.98;;;1.30;;
7338;SDS011;33747;49.524;8.390;2022-09-03T16:23:36;4.75;;;2.35;;
7338;SDS011;33747;49.524;8.390;2022-09-03T16:26:45;3.45;;;1.90;;
7338;SDS011;33747;49.524;8.390;2022-09-03T16:29:15;4.00;;;2.00;;
7338;SDS011;33747;49.524;8.390;2022-09-03T16:37:57;2.67;;;2.47;;
7338;SDS011;33747;49.524;8.390;2022-09-03T16:40:35;9.73;;;2.78;;
7338;SDS011;33747;49.524;8.390;2022-09-03T16:43:23;4.18;;;2.25;;
7338;SDS011;33747;49.524;8.390;2022-09-03T16:46:03;2.88;;;2.22;;
7338;SDS011;33747;49.524;8.390;2022-09-03T16:54:23;2.88;;;2.13;;
7338;SDS011;33747;49.524;8.390;2022-09-03T16:59:53;2.63;;;2.42;;
7338;SDS011;33747;49.524;8.390;2022-09-03T17:03:22;2.50;;;2.30;;
7338;SDS011;33747;49.524;8.390;2022-09-03T17:08:30;4.35;;;2.25;;
7338;SDS011;33747;49.524;8.390;2022-09-03T17:21:48;2.95;;;2.65;;
7338;SDS011;33747;49.524;8.390;2022-09-03T17:24:34;3.42;;;2.70;;
7338;SDS011;33747;49.524;8.390;2022-09-03T17:27:10;2.75;;;2.50;;
7338;SDS011;33747;49.524;8.390;2022-09-03T17:36:08;2.47;;;2.10;;
7338;SDS011;33747;49.524;8.390;2022-09-03T17:41:26;3.58;;;2.20;;
7338;SDS011;33747;49.524;8.390;2022-09-03T17:44:15;2.85;;;2.15;;
7338;SDS011;33747;49.524;8.390;2022-09-03T17:46:51;2.58;;;1.83;;
7338;SDS011;33747;49.524;8.390;2022-09-03T17:49:29;3.63;;;1.85;;
7338;SDS011;33747;49.524;8.390;2022-09-03T17:54:52;2.25;;;1.52;;
7338;SDS011;33747;49.524;8.390;2022-09-03T17:57:22;4.35;;;2.00;;
7338;SDS011;33747;49.524;8.390;2022-09-03T18:00:19;3.05;;;1.60;;
7338;SDS011;33747;49.524;8.390;2022-09-03T18:02:44;4.10;;;1.70;;
7338;SDS011;33747;49.524;8.390;2022-09-03T18:05:21;2.45;;;1.90;;
7338;SDS011;33747;49.524;8.390;2022-09-03T18:16:38;3.97;;;1.67;;
7338;SDS011;33747;49.524;8.390;2022-09-03T18:21:56;4.97;;;2.15;;
7338;SDS011;33747;49.524;8.390;2022-09-03T18:24:59;3.03;;;1.83;;
7338;SDS011;33747;49.524;8.390;2022-09-03T18:27:45;3.05;;;1.85;;
7338;SDS011;33747;49.524;8.390;2022-09-03T18:30:31;2.20;;;2.05;;
7338;SDS011;33747;49.524;8.390;2022-09-03T18:33:16;3.10;;;2.38;;
7338;SDS011;33747;49.524;8.390;2022-09-03T18:36:03;3.47;;;2.10;;
7338;SDS011;33747;49.524;8.390;2022-09-03T18:38:47;3.38;;;2.30;;
7338;SDS011;33747;49.524;8.390;2022-09-03T18:47:43;2.90;;;2.67;;
7338;SDS011;33747;49.524;8.390;2022-09-03T18:50:56;3.08;;;2.72;;
7338;SDS011;33747;49.524;8.390;2022-09-03T18:53:47;3.55;;;2.72;;
7338;SDS011;33747;49.524;8.390;2022-09-03T18:59:45;2.58;;;2.20;;
7338;SDS011;33747;49.524;8.390;2022-09-03T19:15:00;6.25;;;3.15;;
7338;SDS011;33747;49.524;8.390;2022-09-03T19:20:36;4.13;;;2.55;;
7338;SDS011;33747;49.524;8.390;2022-09-03T19:23:21;4.63;;;2.40;;
7338;SDS011;33747;49.524;8.390;2022-09-03T19:29:06;3.60;;;3.30;;
7338;SDS011;33747;49.524;8.390;2022-09-03T19:32:02;5.88;;;3.25;;
7338;SDS011;33747;49.524;8.390;2022-09-03T19:34:55;4.13;;;3.03;;
7338;SDS011;33747;49.524;8.390;2022-09-03T19:40:52;6.05;;;4.53;;
7338;SDS011;33747;49.524;8.390;2022-09-03T19:46:57;4.65;;;3.80;;
7338;SDS011;33747;49.524;8.390;2022-09-03T19:49:47;4.63;;;3.83;;
7338;SDS011;33747;49.524;8.390;2022-09-03T19:52:40;6.55;;;2.10;;
7338;SDS011;33747;49.524;8.390;2022-09-03T19:55:32;6.25;;;2.58;;
7338;SDS011;33747;49.524;8.390;2022-09-03T19:58:18;4.22;;;2.00;;
7338;SDS011;33747;49.524;8.390;2022-09-03T20:01:05;3.45;;;2.10;;
7338;SDS011;33747;49.524;8.390;2022-09-03T20:03:49;9.65;;;2.15;;
7338;SDS011;33747;49.524;8.390;2022-09-03T20:06:34;3.83;;;2.20;;
7338;SDS011;33747;49.524;8.390;2022-09-03T20:09:20;3.35;;;1.95;;